createdAt,value
2022-08-11T00:01:14.107Z,99057.41
2022-08-11T00:03:47.628Z,99055.72
2022-08-11T00:06:17.334Z,99062.78
2022-08-11T00:08:45.996Z,99053.88
2022-08-11T00:11:17.303Z,99052.88
2022-08-11T00:13:47.563Z,99057.59
2022-08-11T00:16:19.797Z,99056.25
2022-08-11T00:18:50.352Z,99054.41
2022-08-11T00:21:19.264Z,99050.00
2022-08-11T00:24:08.674Z,99054.56
2022-08-11T00:26:37.641Z,99052.72
2022-08-11T00:29:10.203Z,99050.19
2022-08-11T00:31:40.126Z,99044.63
2022-08-11T00:34:12.649Z,99044.81
2022-08-11T00:36:47.039Z,99044.13
2022-08-11T00:39:16.353Z,99049.53
2022-08-11T00:41:48.679Z,99046.47
2022-08-11T00:44:39.278Z,99040.25
2022-08-11T00:47:20.164Z,99048.16
2022-08-11T00:50:02.669Z,99045.28
2022-08-11T00:53:00.968Z,99047.16
2022-08-11T00:55:59.546Z,99034.66
2022-08-11T00:59:35.384Z,99040.06
2022-08-11T01:02:18.760Z,99044.63
2022-08-11T01:05:36.799Z,99037.34
2022-08-11T01:08:43.668Z,99043.78
2022-08-11T01:11:55.758Z,99047.50
2022-08-11T01:14:52.123Z,99048.16
2022-08-11T01:18:12.052Z,99045.44
2022-08-11T01:21:10.424Z,99037.56
2022-08-11T01:24:46.719Z,99034.84
2022-08-11T01:27:41.743Z,99031.31
2022-08-11T01:31:23.926Z,99029.47
2022-08-11T01:34:55.607Z,99026.75
2022-08-11T01:38:15.023Z,99030.28
2022-08-11T01:41:02.101Z,99031.97
2022-08-11T01:44:41.291Z,99029.25
2022-08-11T01:47:36.963Z,99030.28
2022-08-11T01:50:13.832Z,99032.31
2022-08-11T01:53:04.739Z,99030.66
2022-08-11T01:55:38.939Z,99018.84
2022-08-11T01:58:14.502Z,99038.75
2022-08-11T02:00:52.430Z,99027.59
2022-08-11T02:03:25.908Z,99031.31
2022-08-11T02:06:01.645Z,99032.16
2022-08-11T02:08:44.762Z,99018.84
2022-08-11T02:11:31.237Z,99025.94
2022-08-11T02:14:20.897Z,99028.94
2022-08-11T02:17:15.958Z,99028.63
2022-08-11T02:20:10.887Z,99027.59
2022-08-11T02:23:05.435Z,99027.59
2022-08-11T02:25:39.037Z,99026.75
2022-08-11T02:28:11.700Z,99029.47
2022-08-11T02:31:15.579Z,99025.94
2022-08-11T02:34:18.850Z,99025.25
2022-08-11T02:36:57.161Z,99028.63
2022-08-11T02:39:26.008Z,99026.91
2022-08-11T02:42:35.143Z,99024.41
2022-08-11T02:45:17.569Z,99023.56
2022-08-11T02:48:07.164Z,99035.00
2022-08-11T02:50:39.211Z,99024.56
2022-08-11T02:53:12.509Z,99024.56
2022-08-11T02:55:57.147Z,99024.22
2022-08-11T02:59:08.859Z,99015.47
2022-08-11T03:01:43.545Z,99018.72
2022-08-11T03:04:15.871Z,99022.94
2022-08-11T03:07:02.470Z,99020.25
2022-08-11T03:09:45.287Z,99014.84
2022-08-11T03:12:37.163Z,99019.06
2022-08-11T03:15:29.564Z,99018.53
2022-08-11T03:18:04.809Z,99021.25
2022-08-11T03:20:40.076Z,99021.91
2022-08-11T03:23:30.441Z,99032.34
2022-08-11T03:26:03.780Z,99028.66
2022-08-11T03:28:35.412Z,99041.94
2022-08-11T03:31:18.628Z,99041.13
2022-08-11T03:34:08.035Z,99037.75
2022-08-11T03:37:17.188Z,99036.06
2022-08-11T03:39:57.174Z,99042.31
2022-08-11T03:42:30.838Z,99035.88
2022-08-11T03:45:16.563Z,99034.88
2022-08-11T03:48:05.977Z,99029.84
2022-08-11T03:51:03.901Z,99026.28
2022-08-11T03:53:57.473Z,99037.06
2022-08-11T03:57:24.425Z,99042.31
2022-08-11T04:00:17.834Z,99035.06
2022-08-11T04:03:34.399Z,99038.59
2022-08-11T04:06:43.439Z,99023.59
2022-08-11T04:09:57.591Z,99026.28
2022-08-11T04:13:00.987Z,99016.16
2022-08-11T04:16:13.066Z,99026.13
2022-08-11T04:19:37.602Z,99027.78
2022-08-11T04:22:24.032Z,99021.56
2022-08-11T04:25:32.084Z,99030.31
2022-08-11T04:28:31.886Z,99020.38
2022-08-11T04:31:12.308Z,99032.00
2022-08-11T04:34:08.101Z,99023.91
2022-08-11T04:37:12.142Z,99027.78
2022-08-11T04:40:07.664Z,99029.50
2022-08-11T04:43:25.117Z,99023.25
2022-08-11T04:46:54.976Z,99021.41
2022-08-11T04:50:11.618Z,99021.22
2022-08-11T04:53:27.761Z,99030.31
2022-08-11T04:56:28.418Z,99032.00
2022-08-11T04:59:59.104Z,99037.38
2022-08-11T05:03:04.921Z,99043.63
2022-08-11T05:05:56.487Z,99039.94
2022-08-11T05:09:11.721Z,99037.03
2022-08-11T05:12:30.145Z,99028.06
2022-08-11T05:15:16.742Z,99029.91
2022-08-11T05:18:13.460Z,99030.09
2022-08-11T05:21:11.437Z,99026.53
2022-08-11T05:24:02.496Z,99029.06
2022-08-11T05:26:50.005Z,99025.25
2022-08-11T05:29:55.036Z,99025.03
2022-08-11T05:32:41.002Z,99028.03
2022-08-11T05:35:10.069Z,99031.59
2022-08-11T05:38:02.741Z,99031.59
2022-08-11T05:40:51.242Z,99034.31
2022-08-11T05:44:20.532Z,99036.28
2022-08-11T05:46:47.309Z,99035.09
2022-08-11T05:49:33.660Z,99031.84
2022-08-11T05:52:19.635Z,99027.84
2022-08-11T05:55:07.567Z,99024.31
2022-08-11T05:57:51.643Z,99033.91
2022-08-11T06:00:24.338Z,99040.97
2022-08-11T06:02:55.506Z,99037.97
2022-08-11T06:05:25.210Z,99032.91
2022-08-11T06:07:55.432Z,99043.72
2022-08-11T06:10:28.754Z,99041.31
2022-08-11T06:12:57.506Z,99043.34
2022-08-11T06:15:27.706Z,99050.28
2022-08-11T06:17:56.470Z,99054.84
2022-08-11T06:20:25.680Z,99058.53
2022-08-11T06:23:05.277Z,99059.47
2022-08-11T06:25:36.011Z,99062.31
2022-08-11T06:28:07.600Z,99052.44
2022-08-11T06:30:42.684Z,99062.56
2022-08-11T06:33:14.399Z,99063.59
2022-08-11T06:35:56.470Z,99059.53
2022-08-11T06:38:50.687Z,99065.09
2022-08-11T06:41:34.485Z,99073.16
2022-08-11T06:44:16.805Z,99061.84
2022-08-11T06:46:51.023Z,99062.25
2022-08-11T06:49:38.125Z,99073.03
2022-08-11T06:52:12.847Z,99061.25
2022-08-11T06:55:06.685Z,99067.03
2022-08-11T06:57:52.683Z,99065.53
2022-08-11T07:00:30.439Z,99068.97
2022-08-11T07:03:09.541Z,99063.88
2022-08-11T07:05:46.546Z,99063.81
2022-08-11T07:09:04.294Z,99062.84
2022-08-11T07:12:21.638Z,99059.19
2022-08-11T07:15:10.240Z,99058.84
2022-08-11T07:17:43.920Z,99051.91
2022-08-11T07:20:31.116Z,99051.41
2022-08-11T07:23:18.419Z,99063.50
2022-08-11T07:26:07.973Z,99055.00
2022-08-11T07:28:53.928Z,99056.25
2022-08-11T07:31:29.213Z,99050.16
2022-08-11T07:34:11.128Z,99057.22
2022-08-11T07:36:48.561Z,99054.00
2022-08-11T07:39:21.699Z,99049.50
2022-08-11T07:41:51.026Z,99055.34
2022-08-11T07:44:19.651Z,99059.19
2022-08-11T07:47:07.602Z,99059.66
2022-08-11T07:49:56.690Z,99052.28
2022-08-11T07:52:34.113Z,99060.34
2022-08-11T07:55:19.650Z,99057.38
2022-08-11T07:58:15.136Z,99054.34
2022-08-11T08:01:10.704Z,99053.84
2022-08-11T08:04:08.575Z,99057.50
2022-08-11T08:06:54.547Z,99053.94
2022-08-11T08:09:41.904Z,99055.34
2022-08-11T08:12:29.312Z,99051.31
2022-08-11T08:15:15.438Z,99049.69
2022-08-11T08:18:09.248Z,99045.84
2022-08-11T08:20:41.953Z,99037.22
2022-08-11T08:23:10.712Z,99037.56
2022-08-11T08:25:41.862Z,99048.66
2022-08-11T08:28:14.169Z,99046.56
2022-08-11T08:30:48.228Z,99036.25
2022-08-11T08:33:21.049Z,99047.41
2022-08-11T08:35:56.173Z,99043.88
2022-08-11T08:38:25.356Z,99048.47
2022-08-11T08:40:56.582Z,99033.94
2022-08-11T08:43:25.200Z,99037.56
2022-08-11T08:45:55.738Z,99026.31
2022-08-11T08:48:24.270Z,99035.09
2022-08-11T08:51:13.436Z,99028.16
2022-08-11T08:53:52.375Z,99026.59
2022-08-11T08:56:28.422Z,99024.22
2022-08-11T08:58:57.059Z,99025.41
2022-08-11T09:01:25.656Z,99022.41
2022-08-11T09:04:05.182Z,99022.56
2022-08-11T09:06:40.096Z,99018.75
2022-08-11T09:09:09.394Z,99022.03
2022-08-11T09:11:53.503Z,99024.47
2022-08-11T09:14:23.432Z,99016.91
2022-08-11T09:16:52.464Z,99014.59
2022-08-11T09:19:22.316Z,99014.97
2022-08-11T09:22:12.685Z,99023.25
2022-08-11T09:24:58.825Z,99014.72
2022-08-11T09:27:28.673Z,99017.19
2022-08-11T09:29:57.294Z,99015.16
2022-08-11T09:32:26.668Z,99005.25
2022-08-11T09:34:55.436Z,99007.44
2022-08-11T09:37:54.729Z,99016.66
2022-08-11T09:40:30.865Z,99016.38
2022-08-11T09:43:33.069Z,99010.19
2022-08-11T09:46:01.601Z,99006.03
2022-08-11T09:48:33.454Z,99006.91
2022-08-11T09:51:02.326Z,99002.47
2022-08-11T09:53:37.176Z,99001.78
2022-08-11T09:56:22.689Z,99002.16
2022-08-11T09:58:52.488Z,98994.22
2022-08-11T10:01:28.242Z,98994.81
2022-08-11T10:04:02.612Z,98988.22
2022-08-11T10:06:54.073Z,98995.31
2022-08-11T10:09:25.524Z,98995.72
2022-08-11T10:11:58.364Z,98992.34
2022-08-11T10:14:46.629Z,98978.06
2022-08-11T10:17:15.751Z,98979.81
2022-08-11T10:19:44.833Z,98975.16
2022-08-11T10:22:50.043Z,98969.09
2022-08-11T10:25:36.362Z,98965.59
2022-08-11T10:28:32.884Z,98961.72
2022-08-11T10:31:13.784Z,98968.00
2022-08-11T10:34:00.214Z,98964.00
2022-08-11T10:36:29.166Z,98964.00
2022-08-11T10:38:57.925Z,98966.84
2022-08-11T10:42:06.902Z,98963.13
2022-08-11T10:44:37.351Z,98954.88
2022-08-11T10:47:25.315Z,98952.31
2022-08-11T10:50:14.687Z,98946.09
2022-08-11T10:53:00.908Z,98948.34
2022-08-11T10:55:47.226Z,98945.41
2022-08-11T10:58:33.431Z,98949.88
2022-08-11T11:01:02.041Z,98938.38
2022-08-11T11:03:34.591Z,98951.13
2022-08-11T11:06:13.990Z,98946.41
2022-08-11T11:09:04.573Z,98939.66
2022-08-11T11:11:56.108Z,98935.44
2022-08-11T11:14:45.805Z,98926.44
2022-08-11T11:17:32.618Z,98917.75
2022-08-11T11:20:02.612Z,98907.53
2022-08-11T11:22:40.493Z,98907.44
2022-08-11T11:25:19.099Z,98905.94
2022-08-11T11:27:58.591Z,98905.31
2022-08-11T11:30:29.784Z,98904.31
2022-08-11T11:33:04.381Z,98897.59
2022-08-11T11:35:40.228Z,98895.72
2022-08-11T11:38:13.857Z,98892.50
2022-08-11T11:40:43.666Z,98880.13
2022-08-11T11:43:12.207Z,98886.84
2022-08-11T11:45:41.765Z,98876.59
2022-08-11T11:48:10.583Z,98874.13
2022-08-11T11:50:40.377Z,98875.53
2022-08-11T11:53:10.587Z,98883.38
2022-08-11T11:55:39.123Z,98876.00
2022-08-11T11:58:25.506Z,98869.22
2022-08-11T12:01:11.744Z,98868.94
2022-08-11T12:03:40.546Z,98862.88
2022-08-11T12:06:14.351Z,98860.09
2022-08-11T12:08:43.105Z,98855.06
2022-08-11T12:11:30.510Z,98848.88
2022-08-11T12:14:00.320Z,98854.56
2022-08-11T12:16:32.981Z,98862.72
2022-08-11T12:19:06.910Z,98863.16
2022-08-11T12:21:37.398Z,98861.19
2022-08-11T12:24:29.345Z,98862.88
2022-08-11T12:27:17.702Z,98856.63
2022-08-11T12:29:54.372Z,98869.81
2022-08-11T12:32:24.686Z,98856.41
2022-08-11T12:34:53.786Z,98849.31
2022-08-11T12:37:30.431Z,98842.16
2022-08-11T12:40:42.648Z,98839.19
2022-08-11T12:43:38.958Z,98832.63
2022-08-11T12:46:10.708Z,98839.47
2022-08-11T12:49:03.495Z,98835.06
2022-08-11T12:52:11.160Z,98828.91
2022-08-11T12:54:59.754Z,98815.09
2022-08-11T12:57:53.743Z,98813.41
2022-08-11T13:00:40.070Z,98808.94
2022-08-11T13:03:27.540Z,98806.41
2022-08-11T13:05:58.854Z,98805.75
2022-08-11T13:08:29.699Z,98800.94
2022-08-11T13:11:18.879Z,98795.63
2022-08-11T13:13:55.742Z,98803.50
2022-08-11T13:16:27.761Z,98805.53
2022-08-11T13:18:56.707Z,98802.97
2022-08-11T13:21:25.130Z,98802.44
2022-08-11T13:24:00.609Z,98798.03
2022-08-11T13:26:49.347Z,98794.19
2022-08-11T13:29:20.292Z,98778.00
2022-08-11T13:31:48.879Z,98790.66
2022-08-11T13:34:17.973Z,98792.19
2022-08-11T13:36:46.569Z,98792.25
2022-08-11T13:39:15.225Z,98776.81
2022-08-11T13:41:47.996Z,98790.88
2022-08-11T13:44:23.301Z,98777.94
2022-08-11T13:46:55.557Z,98783.25
2022-08-11T13:49:23.985Z,98790.41
2022-08-11T13:51:53.803Z,98792.00
2022-08-11T13:54:23.927Z,98787.06
2022-08-11T13:56:55.303Z,98793.44
2022-08-11T13:59:30.125Z,98828.22
2022-08-11T14:02:22.167Z,98880.44
2022-08-11T14:04:55.476Z,98883.03
2022-08-11T14:07:26.346Z,98850.63
2022-08-11T14:09:57.607Z,98859.28
2022-08-11T14:12:46.699Z,98869.22
2022-08-11T14:15:20.149Z,98879.47
2022-08-11T14:17:52.361Z,98880.97
2022-08-11T14:20:39.012Z,98879.59
2022-08-11T14:23:11.085Z,98881.75
2022-08-11T14:26:02.365Z,98906.69
2022-08-11T14:28:40.207Z,98897.44
2022-08-11T14:31:12.417Z,98916.34
2022-08-11T14:34:00.045Z,98912.66
2022-08-11T14:36:32.313Z,98928.66
2022-08-11T14:39:02.069Z,98923.81
2022-08-11T14:42:10.686Z,98930.22
2022-08-11T14:44:57.518Z,98923.50
2022-08-11T14:47:25.998Z,98914.75
2022-08-11T14:50:06.518Z,98906.66
2022-08-11T14:52:39.421Z,98912.03
2022-08-11T14:55:26.826Z,98900.22
2022-08-11T14:57:57.021Z,98904.97
2022-08-11T15:00:27.497Z,98912.88
2022-08-11T15:03:10.704Z,98903.59
2022-08-11T15:06:00.216Z,98895.84
2022-08-11T15:08:50.338Z,98891.28
2022-08-11T15:11:37.495Z,98890.09
2022-08-11T15:14:07.963Z,98879.66
2022-08-11T15:16:55.855Z,98879.00
2022-08-11T15:19:27.492Z,98885.44
2022-08-11T15:22:13.283Z,98889.25
2022-08-11T15:24:41.736Z,98899.53
2022-08-11T15:27:36.553Z,98911.81
2022-08-11T15:30:32.097Z,98907.94
2022-08-11T15:33:23.485Z,98902.91
2022-08-11T15:36:09.874Z,98900.88
2022-08-11T15:38:38.970Z,98901.72
2022-08-11T15:41:24.863Z,98891.59
2022-08-11T15:44:11.811Z,98881.81
2022-08-11T15:46:43.557Z,98887.03
2022-08-11T15:49:21.884Z,98877.94
2022-08-11T15:51:54.405Z,98884.69
2022-08-11T15:54:26.516Z,98885.66
2022-08-11T15:56:55.677Z,98877.03
2022-08-11T15:59:43.838Z,98886.53
2022-08-11T16:02:32.403Z,98871.94
2022-08-11T16:05:04.311Z,98879.97
2022-08-11T16:07:39.804Z,98875.75
2022-08-11T16:10:15.605Z,98872.34
2022-08-11T16:13:20.468Z,98874.63
2022-08-11T16:16:08.619Z,98871.97
2022-08-11T16:18:43.824Z,98880.47
2022-08-11T16:21:26.154Z,98883.97
2022-08-11T16:24:05.783Z,98879.72
2022-08-11T16:27:07.749Z,98882.41
2022-08-11T16:29:23.808Z,98878.69
2022-08-11T16:32:06.680Z,98877.31
2022-08-11T16:34:54.954Z,98873.44
2022-08-11T16:37:42.349Z,98867.00
2022-08-11T16:40:12.023Z,98864.13
2022-08-11T16:43:08.712Z,98864.53
2022-08-11T16:45:58.300Z,98866.84
2022-08-11T16:48:35.081Z,98865.03
2022-08-11T16:51:06.077Z,98862.63
2022-08-11T16:53:45.991Z,98858.91
2022-08-11T16:56:28.446Z,98845.25
2022-08-11T16:59:16.557Z,98840.69
2022-08-11T17:01:51.853Z,98840.69
2022-08-11T17:04:49.098Z,98838.63
2022-08-11T17:07:41.736Z,98838.06
2022-08-11T17:10:51.310Z,98842.84
2022-08-11T17:13:30.724Z,98852.13
2022-08-11T17:16:08.534Z,98829.22
2022-08-11T17:18:47.127Z,98834.81
2022-08-11T17:21:21.217Z,98840.00
2022-08-11T17:23:52.398Z,98833.78
2022-08-11T17:26:26.560Z,98836.47
2022-08-11T17:28:58.861Z,98834.06
2022-08-11T17:31:45.316Z,98838.97
2022-08-11T17:34:32.228Z,98849.31
2022-08-11T17:37:01.223Z,98835.66
2022-08-11T17:39:31.958Z,98839.19
2022-08-11T17:42:19.660Z,98841.50
2022-08-11T17:45:05.683Z,98835.28
2022-08-11T17:47:51.817Z,98841.69
2022-08-11T17:50:20.681Z,98839.63
2022-08-11T17:53:06.808Z,98841.13
2022-08-11T17:55:54.056Z,98838.72
2022-08-11T17:58:41.750Z,98836.69
2022-08-11T18:01:11.115Z,98828.31
2022-08-11T18:03:40.860Z,98833.03
2022-08-11T18:06:12.602Z,98824.72
2022-08-11T18:09:02.224Z,98837.09
2022-08-11T18:12:10.047Z,98835.66
2022-08-11T18:14:56.926Z,98834.97
2022-08-11T18:17:43.084Z,98841.50
2022-08-11T18:20:29.502Z,98837.81
2022-08-11T18:23:15.321Z,98840.69
2022-08-11T18:26:07.054Z,98836.75
2022-08-11T18:28:58.298Z,98846.88
2022-08-11T18:31:46.113Z,98845.72
2022-08-11T18:34:34.732Z,98853.34
2022-08-11T18:37:25.941Z,98848.00
2022-08-11T18:40:16.430Z,98848.38
2022-08-11T18:43:03.720Z,98851.94
2022-08-11T18:46:07.035Z,98862.16
2022-08-11T18:48:56.444Z,98858.31
2022-08-11T18:51:43.104Z,98868.31
2022-08-11T18:54:30.670Z,98861.13
2022-08-11T18:57:20.346Z,98876.13
2022-08-11T19:00:06.738Z,98876.47
2022-08-11T19:02:54.290Z,98871.69
2022-08-11T19:06:32.175Z,98875.63
2022-08-11T19:08:49.975Z,98872.41
2022-08-11T19:11:42.529Z,98873.44
2022-08-11T19:14:29.968Z,98868.41
2022-08-11T19:17:44.555Z,98863.47
2022-08-11T19:20:25.542Z,98864.50
2022-08-11T19:23:14.068Z,98872.75
2022-08-11T19:26:00.753Z,98875.28
2022-08-11T19:28:46.883Z,98869.91
2022-08-11T19:31:32.980Z,98868.88
2022-08-11T19:34:19.935Z,98870.53
2022-08-11T19:37:06.844Z,98866.34
2022-08-11T19:39:54.814Z,98865.69
2022-08-11T19:42:41.423Z,98863.84
2022-08-11T19:45:28.230Z,98867.53
2022-08-11T19:48:31.246Z,98869.59
2022-08-11T19:51:18.773Z,98865.03
2022-08-11T19:54:05.678Z,98867.06
2022-08-11T19:56:53.807Z,98861.66
2022-08-11T19:59:41.931Z,98863.53
2022-08-11T20:02:28.650Z,98856.28
2022-08-11T20:05:14.978Z,98856.81
2022-08-11T20:08:08.666Z,98857.47
2022-08-11T20:11:00.682Z,98857.09
2022-08-11T20:13:48.199Z,98855.81
2022-08-11T20:16:38.065Z,98852.91
2022-08-11T20:19:26.172Z,98857.00
2022-08-11T20:22:30.761Z,98857.00
2022-08-11T20:25:17.369Z,98867.59
2022-08-11T20:28:04.460Z,98858.00
2022-08-11T20:30:52.010Z,98861.06
2022-08-11T20:33:38.399Z,98853.47
2022-08-11T20:36:25.430Z,98859.69
2022-08-11T20:39:11.930Z,98849.56
2022-08-11T20:41:59.564Z,98854.09
2022-08-11T20:44:45.854Z,98851.41
2022-08-11T20:47:56.529Z,98850.41
2022-08-11T20:50:41.561Z,98846.88
2022-08-11T20:53:35.976Z,98851.41
2022-08-11T20:56:38.799Z,98849.75
2022-08-11T20:59:26.173Z,98854.09
2022-08-11T21:02:12.671Z,98856.63
2022-08-11T21:05:01.026Z,98866.59
2022-08-11T21:07:57.009Z,98859.50
2022-08-11T21:10:51.277Z,98864.91
2022-08-11T21:13:38.213Z,98859.50
2022-08-11T21:16:27.326Z,98863.22
2022-08-11T21:19:59.825Z,98870.28
2022-08-11T21:22:31.010Z,98864.91
2022-08-11T21:25:17.142Z,98863.22
2022-08-11T21:28:04.166Z,98863.22
2022-08-11T21:30:50.081Z,98857.84
2022-08-11T21:33:36.137Z,98864.91
2022-08-11T21:36:22.768Z,98870.28
2022-08-11T21:39:10.120Z,98863.22
2022-08-11T21:41:56.252Z,98871.16
2022-08-11T21:44:42.726Z,98873.00
2022-08-11T21:47:43.525Z,98864.91
2022-08-11T21:50:30.644Z,98867.78
2022-08-11T21:53:17.187Z,98869.47
2022-08-11T21:56:04.658Z,98862.41
2022-08-11T21:58:50.582Z,98870.50
2022-08-11T22:01:37.245Z,98863.22
2022-08-11T22:04:23.417Z,98862.03
2022-08-11T22:07:10.094Z,98867.91
2022-08-11T22:09:56.582Z,98860.47
2022-08-11T22:12:45.172Z,98868.41
2022-08-11T22:15:32.039Z,98868.19
2022-08-11T22:18:19.664Z,98880.84
2022-08-11T22:21:05.552Z,98887.09
2022-08-11T22:23:52.056Z,98882.53
2022-08-11T22:26:41.235Z,98880.03
2022-08-11T22:29:49.937Z,98878.81
2022-08-11T22:32:34.843Z,98875.28
2022-08-11T22:35:21.514Z,98866.16
2022-08-11T22:38:07.529Z,98871.56
2022-08-11T22:40:53.617Z,98868.66
2022-08-11T22:43:39.497Z,98869.53
2022-08-11T22:46:27.023Z,98873.06
2022-08-11T22:49:12.926Z,98872.03
2022-08-11T22:51:59.063Z,98865.81
2022-08-11T22:54:45.230Z,98870.16
2022-08-11T22:57:31.107Z,98871.03
2022-08-11T23:00:17.099Z,98871.03
2022-08-11T23:03:04.810Z,98869.16
2022-08-11T23:05:50.913Z,98866.47
2022-08-11T23:08:36.927Z,98863.94
2022-08-11T23:11:23.123Z,98865.81
2022-08-11T23:14:08.952Z,98873.06
2022-08-11T23:16:54.919Z,98865.97
2022-08-11T23:20:08.598Z,98865.13
2022-08-11T23:22:50.842Z,98859.56
2022-08-11T23:25:36.817Z,98860.56
2022-08-11T23:28:23.150Z,98856.03
2022-08-11T23:31:09.723Z,98859.72
2022-08-11T23:33:56.301Z,98851.63
2022-08-11T23:36:46.969Z,98854.16
2022-08-11T23:39:34.205Z,98843.53
2022-08-11T23:42:21.244Z,98850.63
2022-08-11T23:45:09.692Z,98840.00
2022-08-11T23:47:56.984Z,98838.97
2022-08-11T23:50:43.164Z,98843.53
2022-08-11T23:53:30.833Z,98836.47
2022-08-11T23:56:17.384Z,98834.81
2022-08-11T23:59:08.769Z,98840.22
